Archival Weather

Dallas-Fort Worth Intl

Dallas-Fort Worth, Texas (KDFW)

Report from: Thursday, September 21, 2023 9:53 AM CDT
Current time: Sunday, February 25, 2024 4:38 PM CST

Current weather – Weather history – Daily summaries
Weather forecast

Temperature28.3°C (82.9°F)
Heat index31.7°C (89.1°F)
Dew point22.8°C (73.0°F)
Winds 9 kts (4.6 m/s, 10.4 mph) South (170°)
Visibility10 mi. (16.1 km)
Clouds Few clouds 2,000 ft. (610 m)
Scattered clouds 25,000 ft. (7,620 m)
Altimeter30.01 in.Hg (1016 mB)
Relative humidity72 %
Density altitude1,837 ft. (560 m)
Sea-level pressure101.5 kPa (1015 mB, 29.98 in.Hg)
Remarks Automated weather observing station with precipitation discriminator
Pressure rising more quickly
Flight conditions Visual Meteorological Conditions
Raw dataKDFW 211453Z 17009KT 10SM FEW020 SCT250 28/23 A3001 RMK AO2 SLP152 T02830228 53020
An error has occurred. This application may no longer respond until reloaded. Reload 🗙